Time;durP1;ratioP1;P1;durP2;ratioP2;P2;SDS_P1;SDS_P2;PMS_P1;PMS_P2;Temp;Humidity;BMP_temperature;BMP_pressure;BME280_temperature;BME280_humidity;BME280_pressure;Samples;Min_cycle;Max_cycle;Signal;HPM_P1;HPM_P2
2022/01/12 00:01:55;;;;;;;12.13;8.97;;;0.20;99.90;;;;;;4964483;28;20181;-81
2022/01/12 00:04:21;;;;;;;9.37;8.37;;;0.20;99.90;;;;;;4961552;28;20185;-79
2022/01/12 00:06:46;;;;;;;9.80;8.77;;;0.30;99.90;;;;;;4947701;28;20184;-80
2022/01/12 00:09:13;;;;;;;10.27;8.93;;;0.30;99.90;;;;;;4964320;28;20536;-79
2022/01/12 00:11:39;;;;;;;9.37;8.47;;;0.30;99.90;;;;;;4948044;28;20177;-80
2022/01/12 00:14:05;;;;;;;10.70;8.50;;;0.30;99.90;;;;;;4960436;29;20224;-80
2022/01/12 00:16:31;;;;;;;8.97;8.00;;;0.30;99.90;;;;;;4965337;28;20177;-80
2022/01/12 00:18:57;;;;;;;10.43;9.27;;;0.20;99.90;;;;;;4946536;29;20220;-80
2022/01/12 00:21:23;;;;;;;10.50;9.23;;;0.20;99.90;;;;;;4964390;28;20633;-79
2022/01/12 00:23:49;;;;;;;12.50;8.97;;;0.20;99.90;;;;;;4964480;28;20248;-80
2022/01/12 00:34:18;;;;;;;10.57;9.50;;;0.30;99.90;;;;;;4964607;28;20179;-79
2022/01/12 00:36:44;;;;;;;10.47;9.47;;;0.20;99.90;;;;;;4963770;28;20208;-79
2022/01/12 00:39:09;;;;;;;12.20;10.80;;;0.20;99.90;;;;;;4963541;28;20209;-79
2022/01/12 00:41:37;;;;;;;10.03;9.03;;;0.20;99.90;;;;;;4959814;28;20182;-79
2022/01/12 00:44:09;;;;;;;17.93;10.87;;;0.10;99.90;;;;;;4958976;28;20192;-79
2022/01/12 00:49:10;;;;;;;10.47;9.37;;;0.10;99.90;;;;;;4985557;23;20265;-79
2022/01/12 00:51:37;;;;;;;11.23;10.00;;;0.20;99.90;;;;;;4985967;28;20183;-78
2022/01/12 00:54:04;;;;;;;12.60;9.87;;;0.10;99.90;;;;;;4976026;28;20200;-79
2022/01/12 00:56:30;;;;;;;10.17;9.17;;;0.10;99.90;;;;;;4966389;28;20176;-79
2022/01/12 00:58:56;;;;;;;11.27;9.33;;;0.20;99.90;;;;;;4960441;28;20285;-79
2022/01/12 01:01:22;;;;;;;10.53;9.43;;;0.20;99.90;;;;;;4962996;28;20185;-79
2022/01/12 01:03:52;;;;;;;11.73;9.93;;;0.20;99.90;;;;;;4962430;28;20248;-80
2022/01/12 01:06:18;;;;;;;11.37;9.13;;;0.20;99.90;;;;;;4935790;28;20285;-79
2022/01/12 01:08:45;;;;;;;10.83;9.60;;;0.20;99.90;;;;;;4965361;28;20205;-80
2022/01/12 01:11:11;;;;;;;10.10;8.70;;;0.20;99.90;;;;;;4965469;28;20685;-80
2022/01/12 01:14:48;;;;;;;12.73;9.67;;;0.10;99.90;;;;;;4948958;28;20279;-81
2022/01/12 01:17:05;;;;;;;10.00;9.00;;;0.50;99.90;;;;;;4961574;28;20193;-80
2022/01/12 01:27:43;;;;;;;14.80;9.60;;;0.00;99.90;;;;;;4964727;28;20223;-80
2022/01/12 01:30:09;;;;;;;10.97;9.67;;;0.00;99.90;;;;;;4965167;28;20178;-80
2022/01/12 01:32:35;;;;;;;11.50;10.30;;;0.00;99.90;;;;;;4948349;28;20188;-80
2022/01/12 01:35:01;;;;;;;11.77;10.20;;;0.00;99.90;;;;;;4964573;28;20177;-80
2022/01/12 01:37:27;;;;;;;13.00;11.63;;;0.20;99.90;;;;;;4964256;28;20204;-80
2022/01/12 01:39:52;;;;;;;11.60;10.37;;;-0.10;99.90;;;;;;4947794;29;20188;-80
2022/01/12 01:42:24;;;;;;;13.90;10.33;;;-0.10;99.90;;;;;;4947872;29;20282;-80
2022/01/12 01:55:29;;;;;;;15.03;11.03;;;-0.20;99.90;;;;;;4965886;28;20184;-81
2022/01/12 01:57:55;;;;;;;13.17;11.40;;;-0.20;99.90;;;;;;4964036;28;20224;-80
2022/01/12 02:00:24;;;;;;;13.57;10.87;;;-0.30;99.90;;;;;;4946833;29;20612;-80
2022/01/12 02:02:56;;;;;;;13.00;11.17;;;-0.20;99.90;;;;;;4964789;28;20253;-81
2022/01/12 02:05:21;;;;;;;14.77;11.40;;;-0.20;99.90;;;;;;4978381;28;20177;-81
2022/01/12 02:07:47;;;;;;;14.77;12.07;;;-0.10;99.90;;;;;;4946717;29;20212;-80
2022/01/12 02:10:13;;;;;;;14.73;11.23;;;-0.10;99.90;;;;;;4965291;28;20253;-80
2022/01/12 02:12:39;;;;;;;14.97;11.47;;;-0.10;99.90;;;;;;4964179;28;20224;-81
2022/01/12 02:15:14;;;;;;;12.63;11.03;;;-0.20;99.90;;;;;;4947439;28;20191;-81
2022/01/12 02:17:53;;;;;;;15.17;11.60;;;-0.10;99.90;;;;;;4947031;29;20677;-80
2022/01/12 02:37:14;;;;;;;13.23;11.53;;;-0.10;99.90;;;;;;4964533;28;20197;-79
2022/01/12 02:39:56;;;;;;;14.07;12.63;;;-0.10;99.90;;;;;;4946728;29;20188;-80
2022/01/12 02:42:24;;;;;;;12.87;11.57;;;0.00;99.90;;;;;;4947789;28;20728;-80
2022/01/12 02:55:47;;;;;;;13.27;11.87;;;-0.10;99.90;;;;;;4970024;28;20248;-80
2022/01/12 02:58:13;;;;;;;13.63;12.10;;;0.00;99.90;;;;;;4964122;28;20695;-79
2022/01/12 03:03:42;;;;;;;16.10;13.13;;;-0.10;99.90;;;;;;4943162;29;20225;-80
2022/01/12 03:06:08;;;;;;;14.57;13.00;;;-0.30;99.90;;;;;;4956752;28;20608;-80
2022/01/12 03:08:37;;;;;;;16.13;13.23;;;-0.30;99.90;;;;;;4974045;28;20758;-81
2022/01/12 03:11:08;;;;;;;18.00;13.23;;;-0.30;99.90;;;;;;4962523;28;20213;-81
2022/01/12 03:13:34;;;;;;;15.00;13.27;;;-0.20;99.90;;;;;;4962804;28;20172;-79
2022/01/12 03:16:02;;;;;;;16.10;12.87;;;-0.20;99.90;;;;;;4965042;28;20181;-80
2022/01/12 03:18:28;;;;;;;16.67;13.83;;;-0.30;99.90;;;;;;4946968;28;20212;-81
2022/01/12 03:20:54;;;;;;;18.43;13.77;;;-0.40;99.90;;;;;;4963019;28;20240;-79
2022/01/12 03:23:19;;;;;;;17.73;13.93;;;-0.40;99.90;;;;;;4964149;28;20192;-80
2022/01/12 03:25:45;;;;;;;19.07;13.43;;;-0.40;99.90;;;;;;4946908;29;20660;-80
2022/01/12 03:28:11;;;;;;;16.20;13.37;;;-0.40;99.90;;;;;;4964259;28;20700;-80
2022/01/12 03:30:55;;;;;;;18.23;13.77;;;-0.40;99.90;;;;;;4946666;28;20232;-80
2022/01/12 03:38:37;;;;;;;16.33;13.37;;;-0.50;99.90;;;;;;4964088;28;20749;-79
2022/01/12 03:41:03;;;;;;;18.50;14.63;;;-0.50;99.90;;;;;;4964980;28;20192;-80
2022/01/12 03:43:29;;;;;;;16.03;13.17;;;-0.50;99.90;;;;;;4965312;28;20259;-80
2022/01/12 03:45:54;;;;;;;15.80;13.17;;;-0.50;99.90;;;;;;4964209;28;20668;-80
2022/01/12 03:48:20;;;;;;;15.53;12.90;;;-0.50;99.90;;;;;;4963740;28;20223;-80
2022/01/12 03:50:48;;;;;;;18.80;15.10;;;-0.50;99.90;;;;;;4957294;28;20203;-79
2022/01/12 03:53:14;;;;;;;17.87;13.93;;;-0.30;99.90;;;;;;4933339;29;20180;-80
2022/01/12 03:55:40;;;;;;;19.67;13.30;;;-0.50;99.90;;;;;;4946336;29;20178;-81
2022/01/12 03:58:06;;;;;;;16.67;14.20;;;-0.50;99.90;;;;;;4944903;28;20284;-79
2022/01/12 04:00:31;;;;;;;17.00;13.97;;;-0.50;99.90;;;;;;4946496;28;20187;-79
2022/01/12 04:02:57;;;;;;;17.30;14.30;;;-0.50;99.90;;;;;;4958577;28;20182;-80
2022/01/12 04:05:40;;;;;;;15.40;13.27;;;-0.50;99.90;;;;;;4965420;28;20259;-82
2022/01/12 04:08:21;;;;;;;17.77;14.50;;;-0.50;99.90;;;;;;4936457;28;20216;-80
2022/01/12 04:10:47;;;;;;;16.67;14.77;;;-0.50;99.90;;;;;;4947492;29;20235;-79
2022/01/12 04:13:14;;;;;;;17.20;13.53;;;-0.50;99.90;;;;;;4966538;28;20169;-79
2022/01/12 04:15:42;;;;;;;16.03;13.33;;;-0.60;99.90;;;;;;4951427;28;20184;-81
2022/01/12 04:18:08;;;;;;;22.47;14.30;;;-0.20;99.90;;;;;;4964422;28;20700;-79
2022/01/12 04:20:33;;;;;;;18.27;14.07;;;-0.60;99.90;;;;;;4966058;28;20195;-80
2022/01/12 04:23:17;;;;;;;15.67;13.07;;;-0.60;99.90;;;;;;4956669;28;20192;-81
2022/01/12 04:25:57;;;;;;;14.17;12.03;;;-0.60;99.90;;;;;;4963794;28;20626;-80
2022/01/12 04:28:25;;;;;;;14.87;11.40;;;-0.50;99.90;;;;;;4966693;28;20207;-79
2022/01/12 04:30:53;;;;;;;12.90;11.47;;;-0.50;99.90;;;;;;4966456;28;20556;-80
2022/01/12 04:33:20;;;;;;;11.87;10.67;;;-0.50;99.90;;;;;;4966096;28;20176;-79
2022/01/12 04:35:52;;;;;;;11.57;10.37;;;-0.50;99.90;;;;;;4966662;28;20181;-80
2022/01/12 04:38:20;;;;;;;16.07;12.10;;;-0.40;99.90;;;;;;4949421;29;20208;-80
2022/01/12 04:40:47;;;;;;;12.70;11.37;;;-0.40;99.90;;;;;;4948753;28;20184;-79
2022/01/12 04:43:13;;;;;;;13.30;11.53;;;-0.40;99.90;;;;;;4965952;28;20193;-80
2022/01/12 04:46:08;;;;;;;13.00;11.20;;;-0.40;99.90;;;;;;4966522;28;20188;-80
2022/01/12 04:50:55;;;;;;;14.80;11.80;;;-0.30;99.90;;;;;;4971809;28;20168;-79
2022/01/12 04:53:22;;;;;;;14.03;11.93;;;-0.30;99.90;;;;;;4964342;28;20177;-79
2022/01/12 04:55:50;;;;;;;13.33;11.93;;;-0.20;99.90;;;;;;4965045;28;20552;-79
2022/01/12 04:58:17;;;;;;;13.03;11.60;;;-0.30;99.90;;;;;;4963326;28;20211;-78
2022/01/12 05:00:44;;;;;;;13.10;11.80;;;-0.20;99.90;;;;;;4944706;29;20196;-79
2022/01/12 05:13:56;;;;;;;15.77;12.30;;;-0.20;99.90;;;;;;4965258;28;20554;-79
2022/01/12 05:16:23;;;;;;;17.10;12.30;;;-0.20;99.90;;;;;;4964453;28;20181;-79
2022/01/12 05:18:50;;;;;;;13.43;12.03;;;-0.10;99.90;;;;;;4948021;28;20550;-81
2022/01/12 05:21:17;;;;;;;13.97;12.13;;;-0.10;99.90;;;;;;4965825;28;20261;-80
2022/01/12 05:23:43;;;;;;;16.47;12.40;;;-0.10;99.90;;;;;;4965414;28;20186;-79
2022/01/12 05:26:09;;;;;;;14.13;12.07;;;-0.10;99.90;;;;;;4965472;28;20220;-80
2022/01/12 05:28:38;;;;;;;16.03;13.83;;;-0.10;99.90;;;;;;4964937;28;20251;-80
2022/01/12 05:31:05;;;;;;;18.23;15.07;;;-0.10;99.90;;;;;;4948223;29;20173;-79
2022/01/12 05:33:31;;;;;;;14.30;12.57;;;0.40;99.90;;;;;;4965195;28;20188;-80
2022/01/12 05:35:58;;;;;;;18.97;12.27;;;-0.10;99.90;;;;;;4966105;28;20177;-79
2022/01/12 05:38:25;;;;;;;14.27;12.43;;;-0.20;99.90;;;;;;4947144;29;20940;-80
2022/01/12 05:41:00;;;;;;;14.87;13.03;;;-0.10;99.90;;;;;;4965479;28;20183;-79
2022/01/12 05:43:29;;;;;;;14.40;12.20;;;-0.10;99.90;;;;;;4948261;29;20215;-80
2022/01/12 05:45:57;;;;;;;14.17;12.50;;;-0.10;99.90;;;;;;4965055;28;20244;-81
2022/01/12 05:51:08;;;;;;;15.30;12.67;;;0.00;99.90;;;;;;4962109;28;20180;-80
2022/01/12 05:53:34;;;;;;;14.53;12.63;;;0.00;99.90;;;;;;4944571;29;20177;-80
2022/01/12 05:55:59;;;;;;;15.87;13.30;;;-0.10;99.90;;;;;;4962801;28;20183;-80
2022/01/12 05:58:25;;;;;;;18.13;13.47;;;-0.10;99.90;;;;;;4944234;29;20264;-80
2022/01/12 06:00:51;;;;;;;16.83;13.63;;;0.00;99.90;;;;;;4931945;29;20185;-79
2022/01/12 06:03:16;;;;;;;19.67;14.37;;;-0.10;99.90;;;;;;4953702;28;20183;-81
2022/01/12 06:05:42;;;;;;;21.63;16.70;;;-0.10;99.90;;;;;;4975870;28;20180;-81
2022/01/12 06:08:08;;;;;;;18.20;15.10;;;-0.10;99.90;;;;;;4977685;28;20188;-81
2022/01/12 06:10:33;;;;;;;16.77;13.03;;;-0.10;99.90;;;;;;4974143;28;20210;-81
2022/01/12 06:12:59;;;;;;;16.47;13.27;;;-0.10;99.90;;;;;;4950163;29;20604;-82
2022/01/12 06:15:25;;;;;;;16.53;13.63;;;-0.10;99.90;;;;;;4967764;28;20184;-81
2022/01/12 06:17:51;;;;;;;13.93;12.43;;;0.00;99.90;;;;;;4967465;28;20200;-79
2022/01/12 06:20:17;;;;;;;15.03;12.60;;;0.00;99.90;;;;;;4967286;28;20212;-81
2022/01/12 06:22:42;;;;;;;18.63;13.47;;;0.00;99.90;;;;;;4966519;28;20199;-81
2022/01/12 06:25:13;;;;;;;16.40;12.90;;;0.00;99.90;;;;;;4965172;28;20184;-80
2022/01/12 06:27:48;;;;;;;15.20;12.37;;;-0.10;99.90;;;;;;4965008;28;20205;-83
2022/01/12 06:33:00;;;;;;;16.67;12.90;;;-0.10;99.90;;;;;;4939987;28;20256;-81
2022/01/12 06:35:26;;;;;;;14.13;12.50;;;-0.10;99.90;;;;;;4950018;29;20181;-81
2022/01/12 06:37:53;;;;;;;15.40;13.40;;;-0.10;99.90;;;;;;4964260;28;20689;-81
2022/01/12 06:40:20;;;;;;;17.67;12.03;;;0.00;99.90;;;;;;4963669;28;20199;-83
2022/01/12 06:42:46;;;;;;;18.70;14.07;;;0.00;99.90;;;;;;4947063;29;20193;-80
2022/01/12 06:45:12;;;;;;;16.47;13.20;;;-0.10;99.90;;;;;;4963581;28;20181;-77
2022/01/12 06:47:38;;;;;;;15.27;13.03;;;-0.10;99.90;;;;;;4947131;28;20236;-79
2022/01/12 06:50:05;;;;;;;14.87;12.50;;;0.00;99.90;;;;;;4965064;28;20213;-81
2022/01/12 06:52:31;;;;;;;14.33;12.80;;;0.00;99.90;;;;;;4967832;28;20282;-80
2022/01/12 06:54:57;;;;;;;17.70;14.73;;;-0.10;99.90;;;;;;4963888;28;20197;-81
2022/01/12 06:57:22;;;;;;;13.87;12.37;;;-0.10;99.90;;;;;;4964670;28;20206;-81
2022/01/12 06:59:48;;;;;;;16.30;13.90;;;-0.10;99.90;;;;;;4949949;28;20181;-80
2022/01/12 07:02:14;;;;;;;16.00;14.13;;;-0.10;99.90;;;;;;4938363;29;20197;-81
2022/01/12 07:04:39;;;;;;;17.77;14.13;;;-0.10;99.90;;;;;;4958903;28;20243;-82
2022/01/12 07:07:05;;;;;;;18.27;13.10;;;-0.10;99.90;;;;;;4964060;28;20268;-80
2022/01/12 07:09:31;;;;;;;16.13;13.63;;;-0.10;99.90;;;;;;4961530;28;20208;-80
2022/01/12 07:11:57;;;;;;;16.27;13.30;;;0.00;99.90;;;;;;4965097;28;20184;-80
2022/01/12 07:14:23;;;;;;;19.33;14.73;;;-0.10;99.90;;;;;;4934878;28;20212;-81
2022/01/12 07:16:48;;;;;;;18.57;13.90;;;-0.10;99.90;;;;;;4947649;28;20189;-81
2022/01/12 07:19:14;;;;;;;16.20;13.63;;;-0.10;99.90;;;;;;4962397;28;20251;-82
2022/01/12 07:21:40;;;;;;;17.00;13.50;;;-0.10;99.90;;;;;;4962179;28;20986;-80
2022/01/12 07:24:06;;;;;;;18.70;13.57;;;-0.20;99.90;;;;;;4944728;29;20189;-80
2022/01/12 07:26:33;;;;;;;19.20;13.57;;;-0.10;99.90;;;;;;4962426;28;20243;-80
2022/01/12 07:28:58;;;;;;;22.33;14.63;;;0.00;99.90;;;;;;4948898;28;20516;-80
2022/01/12 07:31:24;;;;;;;21.43;14.93;;;-0.10;99.90;;;;;;4961873;28;20196;-80
2022/01/12 07:33:50;;;;;;;20.17;15.73;;;-0.10;99.90;;;;;;4963159;28;20642;-80
2022/01/12 07:36:16;;;;;;;22.13;15.27;;;-0.10;99.90;;;;;;4962975;28;20646;-80
2022/01/12 07:38:43;;;;;;;20.17;14.77;;;-0.10;99.90;;;;;;4948299;29;20225;-80
2022/01/12 07:41:08;;;;;;;19.13;15.07;;;0.00;99.90;;;;;;4948666;29;20686;-81
2022/01/12 07:43:34;;;;;;;18.13;14.60;;;-0.10;99.90;;;;;;4957001;28;20209;-81
2022/01/12 07:46:00;;;;;;;17.53;13.33;;;-0.10;99.90;;;;;;4964922;28;20240;-81
2022/01/12 07:48:26;;;;;;;17.50;14.70;;;-0.10;99.90;;;;;;4948658;28;20220;-80
2022/01/12 07:50:51;;;;;;;16.50;13.03;;;-0.10;99.90;;;;;;4967104;28;20256;-79
2022/01/12 07:53:17;;;;;;;15.73;13.33;;;-0.10;99.90;;;;;;4949351;29;20186;-79
2022/01/12 07:55:43;;;;;;;17.30;14.40;;;-0.10;99.90;;;;;;4967082;28;20241;-81
2022/01/12 07:58:09;;;;;;;20.90;15.57;;;-0.10;99.90;;;;;;4964400;28;20216;-81
2022/01/12 08:00:35;;;;;;;18.47;14.57;;;-0.10;99.90;;;;;;4965421;28;20773;-82
2022/01/12 08:03:00;;;;;;;18.23;13.20;;;0.00;99.90;;;;;;4959083;28;20243;-80
2022/01/12 08:05:26;;;;;;;18.13;13.80;;;-0.10;99.90;;;;;;4946651;28;20189;-80
2022/01/12 08:07:54;;;;;;;18.40;13.97;;;-0.10;99.90;;;;;;4950140;28;20208;-80
2022/01/12 08:10:20;;;;;;;18.37;15.27;;;-0.10;99.90;;;;;;4967000;28;20644;-81
2022/01/12 08:12:46;;;;;;;15.87;14.17;;;-0.10;99.90;;;;;;4966180;28;20174;-81
2022/01/12 08:15:12;;;;;;;18.33;13.73;;;-0.10;99.90;;;;;;4967399;28;20244;-81
2022/01/12 08:17:38;;;;;;;26.53;13.97;;;-0.20;99.90;;;;;;4966243;28;20259;-81
2022/01/12 08:20:06;;;;;;;17.57;14.10;;;-0.10;99.90;;;;;;4948693;28;20207;-82
2022/01/12 08:22:32;;;;;;;17.77;13.20;;;-0.10;99.90;;;;;;4966177;28;20192;-80
2022/01/12 08:24:58;;;;;;;17.43;13.43;;;-0.10;99.90;;;;;;4967310;28;20181;-81
2022/01/12 08:27:24;;;;;;;21.40;14.03;;;-0.10;99.90;;;;;;4948773;28;20807;-79
2022/01/12 08:29:51;;;;;;;15.03;12.93;;;-0.10;99.90;;;;;;4965767;28;20693;-81
2022/01/12 08:32:17;;;;;;;21.00;13.00;;;0.00;99.90;;;;;;4948150;28;20746;-79
2022/01/12 08:34:43;;;;;;;30.97;16.87;;;-0.10;99.90;;;;;;4965362;28;20195;-79
2022/01/12 08:37:09;;;;;;;18.80;13.53;;;-0.30;99.90;;;;;;4962898;28;20740;-81
2022/01/12 08:39:34;;;;;;;18.47;14.17;;;0.20;99.90;;;;;;4959918;28;20188;-79
2022/01/12 08:42:00;;;;;;;17.33;13.73;;;0.00;99.90;;;;;;4945102;29;20188;-79
2022/01/12 08:44:26;;;;;;;18.27;13.07;;;0.10;99.90;;;;;;4963089;28;20188;-77
2022/01/12 08:46:51;;;;;;;18.87;13.83;;;0.10;99.90;;;;;;4949497;28;20185;-78
2022/01/12 08:49:17;;;;;;;18.53;13.80;;;0.10;99.90;;;;;;4964761;28;20212;-80
2022/01/12 08:51:43;;;;;;;30.20;24.50;;;0.20;99.90;;;;;;4967270;28;20185;-81
2022/01/12 08:54:08;;;;;;;15.07;11.97;;;0.10;99.90;;;;;;4967162;28;20177;-81
2022/01/12 08:56:36;;;;;;;13.87;12.33;;;0.10;99.90;;;;;;4967127;28;20180;-82
2022/01/12 08:59:03;;;;;;;18.07;12.57;;;0.00;99.90;;;;;;4948815;29;20700;-80
2022/01/12 09:01:28;;;;;;;16.70;13.37;;;0.10;99.90;;;;;;4962919;28;20533;-78
2022/01/12 09:03:54;;;;;;;22.87;15.77;;;0.20;99.90;;;;;;4962198;28;20187;-80
2022/01/12 09:06:19;;;;;;;26.10;18.50;;;0.20;99.90;;;;;;4963736;28;20555;-81
2022/01/12 09:08:45;;;;;;;18.27;12.80;;;0.20;99.90;;;;;;4946267;29;20553;-81
2022/01/12 09:11:13;;;;;;;20.83;15.03;;;0.20;99.90;;;;;;4976452;28;20241;-81
2022/01/12 09:13:39;;;;;;;14.87;12.30;;;0.20;99.90;;;;;;4973065;28;20199;-82
2022/01/12 09:16:06;;;;;;;25.13;13.90;;;0.70;99.90;;;;;;4966222;28;20189;-84
2022/01/12 09:18:39;;;;;;;16.63;12.97;;;0.90;99.90;;;;;;4963027;28;20224;-81
2022/01/12 09:21:06;;;;;;;17.93;13.73;;;0.30;99.90;;;;;;4965981;28;20184;-81
2022/01/12 09:23:32;;;;;;;17.70;13.57;;;0.30;99.90;;;;;;4947858;29;20192;-81
2022/01/12 09:25:57;;;;;;;17.10;13.20;;;0.20;99.90;;;;;;4966520;28;20168;-81
2022/01/12 09:28:23;;;;;;;15.30;13.13;;;0.20;99.90;;;;;;4964281;28;20201;-80
2022/01/12 09:30:51;;;;;;;14.83;12.23;;;0.30;99.90;;;;;;4965254;28;20185;-84
2022/01/12 09:33:17;;;;;;;14.27;12.73;;;0.40;99.90;;;;;;4966226;28;20193;-81
2022/01/12 09:35:45;;;;;;;18.57;12.67;;;0.60;99.90;;;;;;4953183;28;20185;-81
2022/01/12 09:38:11;;;;;;;14.60;12.03;;;0.40;99.90;;;;;;4946273;28;20197;-82
2022/01/12 09:40:39;;;;;;;16.47;12.40;;;0.40;99.90;;;;;;4960936;28;20551;-81
2022/01/12 09:43:05;;;;;;;19.13;13.13;;;0.60;99.90;;;;;;4945819;29;20625;-82
2022/01/12 09:45:32;;;;;;;16.33;12.47;;;0.70;99.90;;;;;;4944567;29;20173;-82
2022/01/12 09:47:58;;;;;;;15.80;12.30;;;1.10;99.90;;;;;;4957713;28;20221;-81
2022/01/12 09:50:25;;;;;;;19.20;14.13;;;0.80;99.90;;;;;;4946627;29;20185;-80
2022/01/12 09:52:52;;;;;;;14.00;12.07;;;0.90;99.90;;;;;;4962641;28;20620;-81
2022/01/12 09:55:19;;;;;;;17.67;13.40;;;0.80;99.90;;;;;;4948459;29;20201;-80
2022/01/12 09:57:44;;;;;;;16.33;13.30;;;0.90;99.90;;;;;;4964408;28;20239;-81
2022/01/12 10:00:11;;;;;;;22.13;14.40;;;0.80;99.90;;;;;;4963832;28;20177;-82
2022/01/12 10:02:37;;;;;;;16.67;13.40;;;0.80;99.90;;;;;;4964137;28;20181;-81
2022/01/12 10:05:06;;;;;;;18.97;14.27;;;1.00;99.90;;;;;;4962646;28;20247;-80
2022/01/12 10:07:32;;;;;;;20.87;13.90;;;0.90;99.90;;;;;;4963164;28;20240;-81
2022/01/12 10:10:07;;;;;;;17.83;13.87;;;1.10;99.90;;;;;;4964412;28;20689;-81
2022/01/12 10:12:33;;;;;;;16.80;13.23;;;1.00;99.90;;;;;;4960326;28;20201;-83
2022/01/12 10:15:02;;;;;;;17.17;13.60;;;1.10;99.90;;;;;;4964758;28;20267;-81
2022/01/12 10:17:40;;;;;;;17.90;13.93;;;1.10;99.90;;;;;;4963352;28;20701;-79
2022/01/12 10:20:08;;;;;;;17.67;13.43;;;1.50;99.90;;;;;;4963062;28;20211;-81
2022/01/12 10:22:34;;;;;;;22.87;14.23;;;1.10;99.90;;;;;;4949148;29;20177;-81
2022/01/12 10:25:01;;;;;;;16.50;13.57;;;1.00;99.90;;;;;;4947181;29;20217;-81
2022/01/12 10:27:28;;;;;;;14.93;12.73;;;1.10;99.90;;;;;;4947088;29;20201;-80
2022/01/12 10:30:01;;;;;;;17.77;13.97;;;1.10;99.90;;;;;;4964556;28;20193;-81
2022/01/12 10:32:27;;;;;;;17.93;15.03;;;1.00;99.90;;;;;;4965007;28;20166;-80
2022/01/12 10:34:53;;;;;;;18.77;14.07;;;1.00;99.90;;;;;;4964937;28;20270;-81
2022/01/12 10:37:22;;;;;;;18.80;14.23;;;1.00;99.90;;;;;;4964790;28;20270;-82
2022/01/12 10:39:52;;;;;;;14.23;12.73;;;1.00;99.90;;;;;;4947247;29;20201;-81
2022/01/12 10:42:21;;;;;;;15.17;13.33;;;1.00;99.90;;;;;;4973218;28;20241;-80
2022/01/12 10:44:50;;;;;;;18.67;13.43;;;1.00;99.90;;;;;;4963929;28;20593;-81
2022/01/12 10:47:19;;;;;;;14.03;12.20;;;1.00;99.90;;;;;;4964242;28;20200;-81
2022/01/12 10:49:56;;;;;;;15.87;12.43;;;1.10;99.90;;;;;;4963169;28;20212;-82
2022/01/12 10:52:25;;;;;;;15.40;12.93;;;1.10;99.90;;;;;;4953991;28;20181;-83
2022/01/12 10:54:57;;;;;;;16.70;13.07;;;1.20;99.90;;;;;;4940965;28;20174;-81
2022/01/12 10:57:27;;;;;;;17.63;13.47;;;1.40;99.90;;;;;;4961371;28;20256;-80
2022/01/12 11:00:18;;;;;;;16.53;13.13;;;1.50;99.90;;;;;;4963122;28;20181;-80
2022/01/12 11:03:02;;;;;;;16.53;13.30;;;1.60;99.90;;;;;;4960508;28;20200;-82
2022/01/12 11:05:30;;;;;;;17.43;14.23;;;1.50;99.90;;;;;;4961012;28;20542;-79
2022/01/12 11:07:56;;;;;;;16.80;13.83;;;1.60;99.90;;;;;;4962923;28;20289;-79
2022/01/12 11:10:23;;;;;;;14.17;12.60;;;1.80;99.90;;;;;;4946300;29;20241;-81
2022/01/12 11:12:51;;;;;;;16.73;13.23;;;1.70;99.90;;;;;;4963261;28;20185;-82
2022/01/12 11:15:19;;;;;;;19.13;14.50;;;1.70;99.90;;;;;;4964382;28;20202;-81
2022/01/12 11:17:47;;;;;;;18.13;15.20;;;1.80;99.90;;;;;;4964099;28;20287;-81
2022/01/12 11:20:19;;;;;;;19.27;15.60;;;2.00;99.90;;;;;;4963336;28;20705;-81
2022/01/12 11:23:04;;;;;;;16.30;13.70;;;2.20;99.90;;;;;;4963291;28;20558;-80
2022/01/12 11:25:33;;;;;;;18.60;14.17;;;2.10;99.90;;;;;;4946944;28;20528;-82
2022/01/12 11:28:20;;;;;;;17.57;14.77;;;2.10;99.90;;;;;;4961651;28;20699;-81
2022/01/12 11:30:50;;;;;;;17.17;14.07;;;2.00;99.90;;;;;;4964248;28;20186;-82
2022/01/12 11:33:17;;;;;;;19.70;14.83;;;2.00;99.90;;;;;;4963752;28;20170;-81
2022/01/12 11:35:49;;;;;;;19.30;15.23;;;1.90;99.90;;;;;;4960515;28;20173;-81
2022/01/12 11:38:35;;;;;;;22.13;15.50;;;1.80;99.90;;;;;;4954766;28;20233;-82
2022/01/12 11:41:24;;;;;;;19.03;15.00;;;1.90;99.90;;;;;;4975427;28;20181;-82
2022/01/12 11:43:57;;;;;;;16.63;14.67;;;2.00;99.90;;;;;;4945824;29;20186;-82
2022/01/12 11:46:26;;;;;;;17.50;13.97;;;2.00;99.90;;;;;;4974696;28;20718;-81
2022/01/12 11:48:59;;;;;;;20.87;15.40;;;2.10;99.90;;;;;;4963484;28;20214;-81
2022/01/12 11:51:39;;;;;;;14.67;13.03;;;2.10;99.90;;;;;;4963273;28;20177;-81
2022/01/12 11:54:09;;;;;;;17.87;13.67;;;2.10;99.90;;;;;;4958229;28;20698;-85
2022/01/12 11:56:37;;;;;;;19.27;13.80;;;1.90;99.90;;;;;;4971380;28;20244;-80
2022/01/12 11:59:10;;;;;;;15.77;13.27;;;1.90;99.90;;;;;;4979184;28;20205;-81
2022/01/12 12:01:50;;;;;;;18.30;13.37;;;1.90;99.90;;;;;;4964439;28;20178;-81
2022/01/12 12:04:30;;;;;;;18.10;14.57;;;1.80;99.90;;;;;;4939766;29;20185;-82
2022/01/12 12:07:12;;;;;;;19.83;14.73;;;1.80;99.90;;;;;;4965912;28;20189;-80
2022/01/12 12:09:52;;;;;;;19.10;14.03;;;1.80;99.90;;;;;;4963747;28;20268;-81
2022/01/12 12:12:32;;;;;;;17.43;14.07;;;1.80;99.90;;;;;;4964823;28;20178;-81
2022/01/12 12:15:00;;;;;;;20.60;14.80;;;1.80;99.90;;;;;;4964656;28;20177;-81
2022/01/12 12:17:28;;;;;;;19.20;15.27;;;2.00;99.90;;;;;;4963075;28;20197;-79
2022/01/12 12:19:55;;;;;;;17.20;14.27;;;2.00;99.90;;;;;;4961182;28;20940;-81
2022/01/12 12:22:33;;;;;;;15.57;13.13;;;2.10;99.90;;;;;;4955678;28;20190;-80
2022/01/12 12:25:09;;;;;;;15.73;13.87;;;2.10;99.90;;;;;;4962940;29;20195;-81
2022/01/12 12:27:36;;;;;;;16.53;13.63;;;2.20;99.90;;;;;;4968266;28;20205;-81
2022/01/12 12:30:07;;;;;;;16.10;13.70;;;2.20;99.90;;;;;;4975244;28;20214;-82
2022/01/12 12:32:33;;;;;;;17.13;13.50;;;2.10;99.90;;;;;;4977884;28;20174;-81
2022/01/12 12:35:11;;;;;;;18.67;14.17;;;2.70;99.90;;;;;;4979305;28;20196;-82
2022/01/12 12:37:46;;;;;;;24.70;16.43;;;2.40;99.90;;;;;;4962797;29;20177;-81
2022/01/12 12:40:18;;;;;;;17.83;14.27;;;2.20;99.90;;;;;;4954190;29;20188;-84
2022/01/12 12:42:47;;;;;;;17.67;14.33;;;2.20;99.90;;;;;;4972146;28;20214;-82
2022/01/12 12:45:12;;;;;;;19.50;14.60;;;2.10;99.90;;;;;;4977305;28;20185;-83
2022/01/12 12:47:38;;;;;;;17.67;13.30;;;2.60;99.90;;;;;;4975365;28;20241;-82
2022/01/12 12:50:11;;;;;;;14.33;12.53;;;2.10;99.90;;;;;;4972558;28;20292;-83
2022/01/12 12:52:39;;;;;;;16.13;13.33;;;2.10;99.90;;;;;;4970951;28;20268;-82
2022/01/12 12:55:16;;;;;;;16.23;12.80;;;2.20;99.90;;;;;;4967045;28;20579;-80
2022/01/12 12:57:53;;;;;;;16.17;13.10;;;2.10;99.90;;;;;;4946615;28;20646;-81
2022/01/12 13:00:25;;;;;;;44.13;25.07;;;2.10;99.90;;;;;;4966274;28;20241;-81
2022/01/12 13:02:53;;;;;;;16.20;13.57;;;2.10;99.90;;;;;;4967144;28;20178;-81
2022/01/12 13:05:27;;;;;;;16.10;13.33;;;2.30;99.90;;;;;;4950182;29;20554;-82
2022/01/12 13:07:53;;;;;;;16.03;13.20;;;2.20;99.90;;;;;;4967308;28;20204;-81
2022/01/12 13:10:21;;;;;;;16.77;13.50;;;2.50;99.90;;;;;;4967582;28;20189;-80
2022/01/12 13:12:49;;;;;;;18.63;15.57;;;2.10;99.90;;;;;;4967414;28;20174;-79
2022/01/12 13:15:32;;;;;;;20.13;16.07;;;2.40;99.90;;;;;;4945981;28;20190;-81
2022/01/12 13:18:08;;;;;;;17.00;14.30;;;2.10;99.90;;;;;;4954668;28;20227;-79
2022/01/12 13:23:30;;;;;;;20.77;15.33;;;2.20;99.90;;;;;;4956414;28;20181;-80
2022/01/12 13:26:01;;;;;;;17.23;13.70;;;2.10;99.90;;;;;;4943531;28;20208;-81
2022/01/12 13:28:28;;;;;;;28.10;18.03;;;2.10;99.90;;;;;;4954409;28;20264;-79
2022/01/12 13:30:59;;;;;;;23.90;16.47;;;2.00;99.90;;;;;;4962305;28;20189;-80
2022/01/12 13:33:28;;;;;;;55.17;32.30;;;2.00;99.90;;;;;;4962202;28;20236;-80
2022/01/12 13:35:54;;;;;;;58.23;33.50;;;2.00;99.90;;;;;;4947713;28;20174;-81
2022/01/12 13:38:30;;;;;;;17.60;14.77;;;2.00;99.90;;;;;;4960258;28;20223;-82
2022/01/12 13:41:05;;;;;;;16.03;12.83;;;2.10;99.90;;;;;;4961137;28;20185;-80
2022/01/12 13:43:30;;;;;;;24.10;16.80;;;2.10;99.90;;;;;;4960672;28;20266;-80
2022/01/12 13:46:03;;;;;;;17.90;14.17;;;2.10;99.90;;;;;;4959757;28;20252;-80
2022/01/12 13:48:30;;;;;;;21.40;15.97;;;2.10;99.90;;;;;;4940153;29;20218;-80
2022/01/12 13:50:58;;;;;;;16.73;13.70;;;2.00;99.90;;;;;;4950511;28;20181;-81
2022/01/12 13:53:32;;;;;;;19.43;14.60;;;2.10;99.90;;;;;;4960400;28;20261;-81
2022/01/12 13:55:58;;;;;;;20.80;15.43;;;2.10;99.90;;;;;;4960330;28;20910;-79
2022/01/12 13:58:28;;;;;;;18.20;14.60;;;2.20;99.90;;;;;;4960408;28;20209;-81
2022/01/12 14:01:10;;;;;;;18.87;13.50;;;2.20;99.90;;;;;;4960953;28;20185;-80
2022/01/12 14:04:05;;;;;;;18.50;14.10;;;2.20;99.90;;;;;;4959155;28;20188;-80
2022/01/12 14:06:38;;;;;;;26.73;18.23;;;2.30;99.90;;;;;;4961745;28;20174;-81
2022/01/12 14:09:12;;;;;;;24.87;16.50;;;2.90;99.90;;;;;;4966859;28;20201;-80